Time;durP1;ratioP1;P1;durP2;ratioP2;P2;SDS_P1;SDS_P2;PMS_P1;PMS_P2;Temp;Humidity;BMP_temperature;BMP_pressure;BME280_temperature;BME280_humidity;BME280_pressure;Samples;Min_cycle;Max_cycle;Signal;HPM_P1;HPM_P2
2021/08/04 00:01:56;;;;;;;3.90;2.83;;;;;;;;;;724868;191;944116;-65
2021/08/04 00:04:22;;;;;;;4.40;2.33;;;;;;;;;;727342;193;920102;-66
2021/08/04 00:06:48;;;;;;;3.77;2.60;;;;;;;;;;731728;192;918965;-66
2021/08/04 00:09:13;;;;;;;3.10;2.10;;;;;;;;;;726207;192;917871;-65
2021/08/04 00:11:39;;;;;;;3.23;2.50;;;;;;;;;;727821;191;918990;-67
2021/08/04 00:14:05;;;;;;;3.73;2.47;;;;;;;;;;733165;192;919560;-68
2021/08/04 00:16:31;;;;;;;6.63;2.87;;;;;;;;;;726009;192;920678;-65
2021/08/04 00:18:57;;;;;;;4.60;2.87;;;;;;;;;;729123;189;944012;-66
2021/08/04 00:21:23;;;;;;;4.63;2.80;;;;;;;;;;732662;192;918660;-66
2021/08/04 00:23:48;;;;;;;6.37;3.33;;;;;;;;;;726795;192;919090;-66
2021/08/04 00:26:14;;;;;;;4.00;2.93;;;;;;;;;;727963;192;920044;-67
2021/08/04 00:28:40;;;;;;;4.97;2.87;;;;;;;;;;732746;192;919175;-65
2021/08/04 00:31:06;;;;;;;5.47;2.63;;;;;;;;;;728964;192;919414;-66
2021/08/04 00:33:32;;;;;;;6.23;3.30;;;;;;;;;;726856;192;918893;-68
2021/08/04 00:35:58;;;;;;;3.10;2.17;;;;;;;;;;726194;192;920325;-67
2021/08/04 00:38:24;;;;;;;2.73;2.07;;;;;;;;;;729728;192;919371;-68
2021/08/04 00:40:49;;;;;;;4.70;3.10;;;;;;;;;;727469;192;919881;-66
2021/08/04 00:43:15;;;;;;;7.20;3.10;;;;;;;;;;727713;192;918900;-67
2021/08/04 00:45:41;;;;;;;4.23;2.30;;;;;;;;;;733033;192;919410;-67
2021/08/04 00:48:07;;;;;;;4.13;2.67;;;;;;;;;;727751;191;919542;-67
2021/08/04 00:50:33;;;;;;;6.20;3.27;;;;;;;;;;725840;192;919531;-68
2021/08/04 00:52:59;;;;;;;5.00;2.67;;;;;;;;;;730823;192;919091;-67
2021/08/04 00:55:25;;;;;;;3.20;2.10;;;;;;;;;;724761;192;930912;-67
2021/08/04 00:57:51;;;;;;;4.23;2.57;;;;;;;;;;726355;192;919588;-67
2021/08/04 01:00:17;;;;;;;6.30;2.40;;;;;;;;;;726641;191;919142;-66
2021/08/04 01:02:47;;;;;;;3.90;2.50;;;;;;;;;;732819;192;918636;-67
2021/08/04 01:05:13;;;;;;;4.10;3.00;;;;;;;;;;724775;189;919171;-67
2021/08/04 01:07:38;;;;;;;3.80;2.63;;;;;;;;;;726411;193;919394;-67
2021/08/04 01:10:09;;;;;;;3.77;2.70;;;;;;;;;;732092;191;918897;-67
2021/08/04 01:12:34;;;;;;;9.10;3.30;;;;;;;;;;727727;191;919042;-67
2021/08/04 01:15:01;;;;;;;6.03;4.13;;;;;;;;;;724096;192;913569;-69
2021/08/04 01:17:27;;;;;;;4.20;2.77;;;;;;;;;;728825;191;919831;-67
2021/08/04 01:19:53;;;;;;;4.50;2.13;;;;;;;;;;727161;193;1021247;-67
2021/08/04 01:22:22;;;;;;;4.50;2.40;;;;;;;;;;725552;190;919939;-68
2021/08/04 01:24:49;;;;;;;5.83;2.40;;;;;;;;;;728183;191;919904;-68
2021/08/04 01:27:15;;;;;;;4.07;2.60;;;;;;;;;;730996;192;919881;-67
2021/08/04 01:29:41;;;;;;;4.10;2.57;;;;;;;;;;729219;192;919480;-68
2021/08/04 01:32:06;;;;;;;4.00;2.60;;;;;;;;;;726204;190;920598;-68
2021/08/04 01:34:32;;;;;;;3.93;2.40;;;;;;;;;;728933;191;919243;-68
2021/08/04 01:36:58;;;;;;;8.77;3.17;;;;;;;;;;726489;193;918453;-68
2021/08/04 01:39:24;;;;;;;3.73;2.87;;;;;;;;;;727271;191;919916;-68
2021/08/04 01:41:50;;;;;;;6.47;3.00;;;;;;;;;;727539;192;918045;-67
2021/08/04 01:44:16;;;;;;;3.43;2.47;;;;;;;;;;731571;192;884066;-67
2021/08/04 01:46:41;;;;;;;4.93;3.00;;;;;;;;;;723702;192;919692;-67
2021/08/04 01:49:09;;;;;;;7.00;2.85;;;;;;;;;;727850;192;918404;-68
2021/08/04 01:51:33;;;;;;;3.40;2.47;;;;;;;;;;730934;191;919582;-68
2021/08/04 01:53:59;;;;;;;5.87;2.40;;;;;;;;;;724786;191;919902;-68
2021/08/04 01:56:25;;;;;;;4.20;2.90;;;;;;;;;;727614;190;920862;-68
2021/08/04 01:58:51;;;;;;;3.53;2.60;;;;;;;;;;734727;192;918307;-67
2021/08/04 02:01:18;;;;;;;6.40;2.80;;;;;;;;;;727336;190;917812;-67
2021/08/04 02:03:43;;;;;;;4.03;2.90;;;;;;;;;;724583;190;919929;-67
2021/08/04 02:06:12;;;;;;;7.30;2.87;;;;;;;;;;727531;190;909454;-67
2021/08/04 02:08:38;;;;;;;4.23;3.00;;;;;;;;;;728670;192;916779;-67
2021/08/04 02:11:07;;;;;;;3.63;2.93;;;;;;;;;;725783;191;916605;-67
2021/08/04 02:13:37;;;;;;;4.60;3.20;;;;;;;;;;726653;191;919500;-67
2021/08/04 02:16:04;;;;;;;43.50;5.90;;;;;;;;;;728553;192;920074;-66
2021/08/04 02:18:30;;;;;;;24.07;4.30;;;;;;;;;;730230;193;919773;-68
2021/08/04 02:20:55;;;;;;;5.40;2.20;;;;;;;;;;727032;191;920495;-67
2021/08/04 02:23:21;;;;;;;3.47;2.25;;;;;;;;;;725893;191;920335;-67
2021/08/04 02:25:49;;;;;;;3.33;2.60;;;;;;;;;;730149;192;919207;-67
2021/08/04 02:28:16;;;;;;;6.80;2.60;;;;;;;;;;726326;192;919856;-67
2021/08/04 02:30:42;;;;;;;3.80;2.50;;;;;;;;;;726097;191;919821;-67
2021/08/04 02:33:08;;;;;;;5.80;2.30;;;;;;;;;;731811;191;919685;-67
2021/08/04 02:35:34;;;;;;;22.80;3.50;;;;;;;;;;726729;190;919602;-67
2021/08/04 02:38:00;;;;;;;3.87;2.50;;;;;;;;;;726115;191;918769;-67
2021/08/04 02:40:26;;;;;;;106.80;6.70;;;;;;;;;;727668;192;919089;-66
2021/08/04 02:42:51;;;;;;;21.67;3.33;;;;;;;;;;732959;191;919387;-67
2021/08/04 02:45:17;;;;;;;3.60;2.70;;;;;;;;;;726922;192;919891;-66
2021/08/04 02:47:43;;;;;;;6.45;2.40;;;;;;;;;;725625;192;992333;-67
2021/08/04 02:50:09;;;;;;;5.80;2.07;;;;;;;;;;732561;191;914836;-66
2021/08/04 02:52:35;;;;;;;37.23;5.43;;;;;;;;;;727476;190;919422;-67
2021/08/04 02:55:01;;;;;;;7.60;2.40;;;;;;;;;;727720;192;920760;-66
2021/08/04 02:57:27;;;;;;;39.57;4.90;;;;;;;;;;731649;191;919508;-68
2021/08/04 02:59:53;;;;;;;18.90;3.70;;;;;;;;;;727318;192;918864;-67
2021/08/04 03:02:19;;;;;;;22.53;3.13;;;;;;;;;;727210;192;919181;-67
2021/08/04 03:04:45;;;;;;;3.10;1.93;;;;;;;;;;727623;191;947196;-66
2021/08/04 03:07:10;;;;;;;3.43;2.13;;;;;;;;;;728198;192;918514;-67
2021/08/04 03:09:36;;;;;;;4.30;2.50;;;;;;;;;;726709;192;933652;-67
2021/08/04 03:12:02;;;;;;;4.17;2.80;;;;;;;;;;726619;192;918746;-67
2021/08/04 03:14:28;;;;;;;4.33;3.00;;;;;;;;;;732351;191;919543;-66
2021/08/04 03:16:54;;;;;;;5.53;3.03;;;;;;;;;;725508;190;888437;-66
2021/08/04 03:19:20;;;;;;;5.67;2.87;;;;;;;;;;725196;193;920360;-66
2021/08/04 03:21:45;;;;;;;3.30;2.43;;;;;;;;;;729814;192;919113;-66
2021/08/04 03:24:11;;;;;;;5.90;2.57;;;;;;;;;;726332;190;919763;-67
2021/08/04 03:26:37;;;;;;;6.73;3.20;;;;;;;;;;725533;192;918774;-67
2021/08/04 03:29:03;;;;;;;5.27;2.90;;;;;;;;;;731608;193;918606;-67
2021/08/04 03:31:29;;;;;;;5.40;3.27;;;;;;;;;;725686;192;924994;-66
2021/08/04 03:33:55;;;;;;;4.80;3.60;;;;;;;;;;723888;192;923109;-66
2021/08/04 03:36:20;;;;;;;5.73;3.43;;;;;;;;;;726287;191;920305;-65
2021/08/04 03:38:46;;;;;;;6.80;4.10;;;;;;;;;;717787;196;920488;-66
2021/08/04 03:41:13;;;;;;;8.03;4.10;;;;;;;;;;725651;191;924204;-66
2021/08/04 03:43:39;;;;;;;6.03;4.60;;;;;;;;;;724842;191;919627;-66
2021/08/04 03:46:05;;;;;;;7.07;4.60;;;;;;;;;;732740;191;932325;-67
2021/08/04 03:48:31;;;;;;;6.40;5.03;;;;;;;;;;727109;191;921274;-66
2021/08/04 03:50:56;;;;;;;6.57;5.70;;;;;;;;;;726142;192;927748;-66
2021/08/04 03:53:22;;;;;;;15.70;6.57;;;;;;;;;;732260;191;919575;-66
2021/08/04 03:55:48;;;;;;;9.57;6.23;;;;;;;;;;726677;191;922620;-66
2021/08/04 03:58:14;;;;;;;10.60;7.30;;;;;;;;;;726827;192;920243;-66
2021/08/04 04:00:40;;;;;;;12.97;8.13;;;;;;;;;;726616;192;923049;-65
2021/08/04 04:03:06;;;;;;;9.07;7.33;;;;;;;;;;727993;193;919128;-65
2021/08/04 04:05:32;;;;;;;11.60;7.72;;;;;;;;;;728165;192;921844;-65
2021/08/04 04:07:58;;;;;;;10.68;8.25;;;;;;;;;;727240;192;919433;-66
2021/08/04 04:10:24;;;;;;;13.93;9.57;;;;;;;;;;731918;190;625443;-66
2021/08/04 04:12:50;;;;;;;11.60;8.17;;;;;;;;;;725016;192;917636;-66
2021/08/04 04:15:16;;;;;;;11.30;9.30;;;;;;;;;;728097;192;919465;-66
2021/08/04 04:17:41;;;;;;;13.10;8.40;;;;;;;;;;731983;192;920433;-66
2021/08/04 04:20:08;;;;;;;13.23;8.80;;;;;;;;;;727369;191;919190;-66
2021/08/04 04:22:33;;;;;;;23.63;9.17;;;;;;;;;;725822;192;919833;-66
2021/08/04 04:24:59;;;;;;;37.47;10.50;;;;;;;;;;731496;191;920270;-67
2021/08/04 04:27:25;;;;;;;36.60;12.03;;;;;;;;;;726573;192;919451;-66
2021/08/04 04:29:51;;;;;;;82.87;14.37;;;;;;;;;;726017;192;920267;-66
2021/08/04 04:32:17;;;;;;;50.77;12.47;;;;;;;;;;727084;191;919109;-66
2021/08/04 04:34:43;;;;;;;19.58;10.43;;;;;;;;;;731130;192;922539;-66
2021/08/04 04:37:09;;;;;;;18.80;11.43;;;;;;;;;;724320;193;920089;-67
2021/08/04 04:39:34;;;;;;;30.58;12.27;;;;;;;;;;724824;191;918954;-66
2021/08/04 04:42:00;;;;;;;29.67;12.20;;;;;;;;;;731656;193;917235;-66
2021/08/04 04:44:26;;;;;;;21.37;12.90;;;;;;;;;;724246;192;923936;-66
2021/08/04 04:46:52;;;;;;;22.50;12.73;;;;;;;;;;726798;192;920041;-66
2021/08/04 04:49:19;;;;;;;29.03;14.90;;;;;;;;;;730995;191;919910;-66
2021/08/04 04:51:45;;;;;;;28.90;15.50;;;;;;;;;;726959;192;921148;-66
2021/08/04 04:54:11;;;;;;;31.93;19.17;;;;;;;;;;726885;192;918623;-66
2021/08/04 04:56:36;;;;;;;40.87;21.77;;;;;;;;;;726235;191;922109;-66
2021/08/04 04:59:02;;;;;;;43.73;21.40;;;;;;;;;;739052;189;921545;-67
2021/08/04 05:01:28;;;;;;;56.53;21.90;;;;;;;;;;726790;189;1127085;-67
2021/08/04 05:03:54;;;;;;;43.80;22.07;;;;;;;;;;726640;191;913201;-66
2021/08/04 05:06:20;;;;;;;50.92;23.67;;;;;;;;;;731070;190;915649;-67
2021/08/04 05:08:46;;;;;;;40.50;21.10;;;;;;;;;;725686;190;917953;-71
2021/08/04 05:11:11;;;;;;;46.47;22.60;;;;;;;;;;726582;190;911103;-67
2021/08/04 05:13:38;;;;;;;47.60;24.20;;;;;;;;;;732226;191;914013;-66
2021/08/04 05:16:04;;;;;;;42.27;23.00;;;;;;;;;;723489;191;919944;-67
2021/08/04 05:18:29;;;;;;;36.70;21.12;;;;;;;;;;730296;192;911830;-69
2021/08/04 05:20:56;;;;;;;37.40;19.12;;;;;;;;;;731724;190;918829;-67
2021/08/04 05:23:22;;;;;;;33.90;19.80;;;;;;;;;;735063;190;917917;-67
2021/08/04 05:25:48;;;;;;;36.60;19.07;;;;;;;;;;725931;190;919626;-67
2021/08/04 05:28:14;;;;;;;31.83;18.83;;;;;;;;;;726915;190;915661;-67
2021/08/04 05:30:39;;;;;;;34.77;17.73;;;;;;;;;;731433;191;915086;-67
2021/08/04 05:33:06;;;;;;;37.83;21.30;;;;;;;;;;726276;190;924107;-67
2021/08/04 05:35:32;;;;;;;33.47;19.58;;;;;;;;;;726779;192;916492;-68
2021/08/04 05:37:57;;;;;;;35.00;20.23;;;;;;;;;;732517;192;915348;-67
2021/08/04 05:40:23;;;;;;;31.07;19.00;;;;;;;;;;727519;192;921256;-68
2021/08/04 05:42:49;;;;;;;31.40;19.77;;;;;;;;;;725841;192;923570;-67
2021/08/04 05:45:15;;;;;;;25.75;17.37;;;;;;;;;;731159;191;920658;-67
2021/08/04 05:47:41;;;;;;;31.73;19.27;;;;;;;;;;725475;191;916164;-68
2021/08/04 05:50:07;;;;;;;28.80;20.27;;;;;;;;;;726923;191;920655;-68
2021/08/04 05:52:33;;;;;;;28.93;19.13;;;;;;;;;;725589;192;914247;-68
2021/08/04 05:54:59;;;;;;;30.10;18.43;;;;;;;;;;731350;192;920146;-68
2021/08/04 05:57:25;;;;;;;39.20;19.07;;;;;;;;;;725753;193;919448;-68
2021/08/04 05:59:51;;;;;;;31.40;19.57;;;;;;;;;;725816;193;919073;-67
2021/08/04 06:02:16;;;;;;;36.57;20.57;;;;;;;;;;731272;192;919343;-67
2021/08/04 06:04:42;;;;;;;33.40;17.87;;;;;;;;;;726114;192;919561;-68
2021/08/04 06:07:08;;;;;;;29.97;18.33;;;;;;;;;;726035;191;919341;-68
2021/08/04 06:09:34;;;;;;;32.43;18.40;;;;;;;;;;733761;192;919443;-68
2021/08/04 06:12:00;;;;;;;27.53;17.43;;;;;;;;;;727494;191;918894;-68
2021/08/04 06:14:26;;;;;;;29.90;18.77;;;;;;;;;;726235;192;1020622;-69
2021/08/04 06:16:51;;;;;;;27.97;17.80;;;;;;;;;;725681;192;924061;-67
2021/08/04 06:19:17;;;;;;;30.20;20.10;;;;;;;;;;728607;193;918798;-67
2021/08/04 06:21:43;;;;;;;28.43;19.90;;;;;;;;;;726443;191;919507;-68
2021/08/04 06:24:09;;;;;;;35.83;22.00;;;;;;;;;;726372;192;919210;-68
2021/08/04 06:26:35;;;;;;;33.10;19.60;;;;;;;;;;732017;191;919526;-67
2021/08/04 06:29:01;;;;;;;28.30;19.37;;;;;;;;;;725225;192;919642;-68
2021/08/04 06:31:26;;;;;;;22.62;15.68;;;;;;;;;;727017;192;919048;-67
2021/08/04 06:33:52;;;;;;;24.27;16.13;;;;;;;;;;731437;193;919262;-66
2021/08/04 06:36:18;;;;;;;22.13;14.93;;;;;;;;;;725337;192;919421;-67
2021/08/04 06:38:44;;;;;;;19.83;14.23;;;;;;;;;;725713;192;919494;-67
2021/08/04 06:41:10;;;;;;;17.57;12.80;;;;;;;;;;728675;192;919429;-67
2021/08/04 06:43:36;;;;;;;15.40;11.10;;;;;;;;;;725893;192;921375;-68
2021/08/04 06:46:02;;;;;;;14.50;10.20;;;;;;;;;;727529;193;919538;-70
2021/08/04 06:48:27;;;;;;;13.40;10.17;;;;;;;;;;730843;191;618729;-67
2021/08/04 06:50:53;;;;;;;11.67;9.97;;;;;;;;;;732291;193;619632;-68
2021/08/04 06:53:19;;;;;;;11.13;9.10;;;;;;;;;;728557;191;639884;-67
2021/08/04 06:55:45;;;;;;;12.30;8.43;;;;;;;;;;729375;191;631966;-68
2021/08/04 06:58:11;;;;;;;12.80;9.57;;;;;;;;;;734657;191;626837;-68
2021/08/04 07:00:38;;;;;;;11.80;9.83;;;;;;;;;;729914;190;644842;-69
2021/08/04 07:03:03;;;;;;;10.67;8.80;;;;;;;;;;729585;192;633663;-69
2021/08/04 07:05:29;;;;;;;13.47;9.67;;;;;;;;;;734213;193;618784;-68
2021/08/04 07:07:54;;;;;;;10.73;9.27;;;;;;;;;;729617;190;618952;-68
2021/08/04 07:10:20;;;;;;;9.47;7.50;;;;;;;;;;731396;192;626917;-68
2021/08/04 07:12:48;;;;;;;11.67;8.10;;;;;;;;;;731270;193;616800;-68
2021/08/04 07:15:12;;;;;;;8.63;7.40;;;;;;;;;;737592;189;677977;-68
2021/08/04 07:17:43;;;;;;;10.07;7.23;;;;;;;;;;730379;191;627491;-68
2021/08/04 07:20:09;;;;;;;7.80;6.60;;;;;;;;;;731425;190;627935;-67
2021/08/04 07:22:34;;;;;;;8.37;7.37;;;;;;;;;;736066;191;629401;-67
2021/08/04 07:25:00;;;;;;;8.90;7.30;;;;;;;;;;731230;190;641975;-67
2021/08/04 07:27:26;;;;;;;7.43;6.60;;;;;;;;;;732240;191;618611;-69
2021/08/04 07:29:52;;;;;;;10.33;7.63;;;;;;;;;;734463;191;629554;-68
2021/08/04 07:32:18;;;;;;;7.87;6.93;;;;;;;;;;731434;192;615341;-67
2021/08/04 07:34:44;;;;;;;9.13;6.70;;;;;;;;;;731198;192;630153;-68
2021/08/04 07:37:10;;;;;;;9.30;8.10;;;;;;;;;;731357;191;644167;-67
2021/08/04 07:39:35;;;;;;;11.00;7.83;;;;;;;;;;733949;190;628051;-67
2021/08/04 07:42:01;;;;;;;10.23;8.07;;;;;;;;;;731097;192;620495;-69
2021/08/04 07:44:27;;;;;;;14.63;10.67;;;;;;;;;;731044;191;637709;-68
2021/08/04 07:46:53;;;;;;;12.20;9.30;;;;;;;;;;733731;192;628455;-68
2021/08/04 07:49:19;;;;;;;13.10;10.03;;;;;;;;;;729296;191;629551;-68
2021/08/04 07:51:45;;;;;;;14.23;10.93;;;;;;;;;;730020;191;632969;-67
2021/08/04 07:54:10;;;;;;;12.50;10.77;;;;;;;;;;735959;191;616413;-69
2021/08/04 07:56:36;;;;;;;14.13;12.10;;;;;;;;;;730266;192;637057;-68
2021/08/04 07:59:04;;;;;;;12.50;10.20;;;;;;;;;;730350;191;632008;-68
2021/08/04 08:01:28;;;;;;;13.40;10.60;;;;;;;;;;730540;192;636796;-67
2021/08/04 08:03:54;;;;;;;11.87;10.67;;;;;;;;;;738579;186;628761;-68
2021/08/04 08:06:20;;;;;;;14.73;10.20;;;;;;;;;;729402;191;633836;-68
2021/08/04 08:08:45;;;;;;;11.85;10.57;;;;;;;;;;725804;192;1123837;-67
2021/08/04 08:11:11;;;;;;;11.03;9.60;;;;;;;;;;732421;191;919403;-68
2021/08/04 08:13:37;;;;;;;10.00;8.97;;;;;;;;;;727383;191;752996;-68
2021/08/04 08:16:04;;;;;;;12.03;9.73;;;;;;;;;;728780;190;815871;-68
2021/08/04 08:18:30;;;;;;;14.23;10.10;;;;;;;;;;734157;190;626997;-68
2021/08/04 08:20:56;;;;;;;11.27;9.13;;;;;;;;;;730097;192;619765;-68
2021/08/04 08:23:22;;;;;;;11.60;9.93;;;;;;;;;;730451;191;628027;-68
2021/08/04 08:25:48;;;;;;;11.60;9.63;;;;;;;;;;732436;191;626993;-67
2021/08/04 08:28:15;;;;;;;10.63;9.53;;;;;;;;;;731561;192;627468;-68
2021/08/04 08:30:40;;;;;;;11.67;9.80;;;;;;;;;;729748;190;641425;-68
2021/08/04 08:33:06;;;;;;;11.17;9.73;;;;;;;;;;731838;190;644304;-69
2021/08/04 08:35:31;;;;;;;15.63;9.03;;;;;;;;;;735070;191;622878;-67
2021/08/04 08:37:57;;;;;;;9.47;8.57;;;;;;;;;;733879;190;636221;-67
2021/08/04 08:40:23;;;;;;;11.00;8.83;;;;;;;;;;733778;190;629608;-68
2021/08/04 08:42:49;;;;;;;11.63;9.63;;;;;;;;;;735572;192;620666;-67
2021/08/04 08:45:15;;;;;;;12.47;9.73;;;;;;;;;;731530;191;628505;-67
2021/08/04 08:47:41;;;;;;;11.80;10.13;;;;;;;;;;729951;190;638128;-69
2021/08/04 08:50:07;;;;;;;10.20;9.20;;;;;;;;;;735330;192;612859;-68
2021/08/04 08:52:32;;;;;;;12.03;8.40;;;;;;;;;;728235;192;627460;-67
2021/08/04 08:55:00;;;;;;;10.90;8.53;;;;;;;;;;731166;190;625166;-68
2021/08/04 08:57:25;;;;;;;9.17;8.27;;;;;;;;;;731467;191;629163;-67
2021/08/04 08:59:52;;;;;;;9.43;8.53;;;;;;;;;;734127;190;620699;-68
2021/08/04 09:02:17;;;;;;;12.10;7.70;;;;;;;;;;730379;192;624347;-67
2021/08/04 09:04:43;;;;;;;9.20;8.30;;;;;;;;;;732670;191;624414;-67
2021/08/04 09:07:08;;;;;;;12.80;7.00;;;;;;;;;;732683;192;650328;-67
2021/08/04 09:09:34;;;;;;;10.00;7.37;;;;;;;;;;730021;193;644105;-68
2021/08/04 09:12:17;;;;;;;9.80;7.20;;;;;;;;;;729871;191;634742;-67
2021/08/04 09:14:43;;;;;;;9.10;7.93;;;;;;;;;;728339;191;660058;-67
2021/08/04 09:17:08;;;;;;;8.77;7.87;;;;;;;;;;732600;190;616290;-67
2021/08/04 09:19:35;;;;;;;9.97;8.17;;;;;;;;;;730452;191;625291;-67
2021/08/04 09:22:03;;;;;;;8.77;7.97;;;;;;;;;;727808;190;639353;-66
2021/08/04 09:24:29;;;;;;;8.90;7.97;;;;;;;;;;732209;191;630079;-66
2021/08/04 09:26:55;;;;;;;9.37;8.00;;;;;;;;;;733081;190;627681;-67
2021/08/04 09:29:20;;;;;;;9.70;7.37;;;;;;;;;;726453;193;629279;-66
2021/08/04 09:31:48;;;;;;;9.97;7.30;;;;;;;;;;730077;191;918750;-67
2021/08/04 09:34:20;;;;;;;11.73;7.80;;;;;;;;;;734059;191;626751;-67
2021/08/04 09:36:45;;;;;;;11.50;9.63;;;;;;;;;;730938;190;621754;-68
2021/08/04 09:39:11;;;;;;;8.50;7.40;;;;;;;;;;731208;190;627285;-67
2021/08/04 09:41:37;;;;;;;11.47;9.00;;;;;;;;;;730047;192;617142;-66
2021/08/04 09:44:04;;;;;;;10.60;8.10;;;;;;;;;;733935;190;919010;-66
2021/08/04 09:46:30;;;;;;;9.30;7.73;;;;;;;;;;732563;190;626606;-68
2021/08/04 09:48:55;;;;;;;11.53;8.60;;;;;;;;;;731866;190;633074;-67
2021/08/04 09:51:22;;;;;;;8.83;7.90;;;;;;;;;;732974;191;630809;-67
2021/08/04 09:53:49;;;;;;;16.10;9.37;;;;;;;;;;730832;191;628978;-66
2021/08/04 09:56:13;;;;;;;19.73;9.10;;;;;;;;;;731496;190;614493;-66
2021/08/04 09:58:39;;;;;;;10.00;8.30;;;;;;;;;;736264;192;622513;-67
2021/08/04 10:01:05;;;;;;;10.43;8.30;;;;;;;;;;730659;189;633541;-66
2021/08/04 10:03:30;;;;;;;11.33;8.57;;;;;;;;;;732254;191;630256;-65
2021/08/04 10:05:56;;;;;;;13.70;8.43;;;;;;;;;;731763;192;635973;-65
2021/08/04 10:08:22;;;;;;;10.60;8.23;;;;;;;;;;707696;197;631230;-65
2021/08/04 10:10:50;;;;;;;10.87;7.97;;;;;;;;;;734258;192;620177;-66
2021/08/04 10:13:18;;;;;;;10.43;7.23;;;;;;;;;;731659;191;633048;-65
2021/08/04 10:15:42;;;;;;;10.53;8.03;;;;;;;;;;734102;191;617385;-65
2021/08/04 10:18:08;;;;;;;11.30;6.93;;;;;;;;;;730881;190;615251;-65
2021/08/04 10:20:34;;;;;;;10.83;8.30;;;;;;;;;;730027;191;623416;-64
2021/08/04 10:22:59;;;;;;;12.33;8.87;;;;;;;;;;734081;192;644719;-64
2021/08/04 10:25:25;;;;;;;9.57;7.73;;;;;;;;;;731761;192;631979;-65
2021/08/04 10:27:51;;;;;;;8.17;6.70;;;;;;;;;;729717;190;623204;-64
2021/08/04 10:30:17;;;;;;;8.43;7.40;;;;;;;;;;731629;193;639254;-64
2021/08/04 10:32:43;;;;;;;7.40;6.37;;;;;;;;;;728472;193;617829;-65
2021/08/04 10:35:09;;;;;;;9.33;6.77;;;;;;;;;;730940;189;697556;-66
2021/08/04 10:37:35;;;;;;;7.83;6.73;;;;;;;;;;733198;190;632321;-64
2021/08/04 10:40:01;;;;;;;6.40;5.70;;;;;;;;;;733398;190;623338;-64
2021/08/04 10:42:41;;;;;;;12.50;7.23;;;;;;;;;;730906;190;630965;-66
2021/08/04 10:45:08;;;;;;;7.53;6.57;;;;;;;;;;730545;191;628672;-64
2021/08/04 10:47:34;;;;;;;11.23;8.17;;;;;;;;;;728542;192;620026;-65
2021/08/04 10:50:05;;;;;;;8.83;6.07;;;;;;;;;;734417;191;621357;-65
2021/08/04 10:52:31;;;;;;;6.60;5.33;;;;;;;;;;730468;191;639029;-64
2021/08/04 10:55:02;;;;;;;8.77;6.00;;;;;;;;;;731212;190;645000;-64
2021/08/04 10:57:28;;;;;;;8.70;6.17;;;;;;;;;;730931;191;622760;-65
2021/08/04 10:59:53;;;;;;;9.30;5.17;;;;;;;;;;735241;189;634317;-64
2021/08/04 11:02:27;;;;;;;5.43;4.50;;;;;;;;;;733089;192;617331;-65
2021/08/04 11:04:53;;;;;;;5.33;4.50;;;;;;;;;;731200;191;633628;-64
2021/08/04 11:07:20;;;;;;;7.40;4.93;;;;;;;;;;726582;191;919355;-64
2021/08/04 11:10:01;;;;;;;5.37;4.87;;;;;;;;;;731353;190;621734;-64
2021/08/04 11:12:43;;;;;;;6.53;5.30;;;;;;;;;;734097;192;637847;-65
2021/08/04 11:15:14;;;;;;;4.30;3.90;;;;;;;;;;734468;192;623655;-66
2021/08/04 11:17:45;;;;;;;5.47;4.77;;;;;;;;;;732191;191;629126;-65
2021/08/04 11:20:12;;;;;;;7.73;6.93;;;;;;;;;;729835;191;633551;-64
2021/08/04 11:22:40;;;;;;;6.17;4.87;;;;;;;;;;731349;192;630202;-64
2021/08/04 11:25:08;;;;;;;4.77;3.73;;;;;;;;;;734071;191;629694;-63
2021/08/04 11:27:32;;;;;;;3.93;3.20;;;;;;;;;;730465;191;637427;-64
2021/08/04 11:29:58;;;;;;;5.20;3.90;;;;;;;;;;728471;193;631161;-64
2021/08/04 11:32:24;;;;;;;3.50;2.90;;;;;;;;;;733780;192;618425;-65
2021/08/04 11:34:50;;;;;;;4.77;2.43;;;;;;;;;;730741;192;626938;-66
2021/08/04 11:37:16;;;;;;;3.73;2.43;;;;;;;;;;732180;192;628290;-66
2021/08/04 11:39:47;;;;;;;4.07;2.87;;;;;;;;;;732099;193;618583;-65
2021/08/04 11:42:13;;;;;;;5.60;2.80;;;;;;;;;;735230;192;678137;-63
2021/08/04 11:44:39;;;;;;;3.23;2.60;;;;;;;;;;731150;191;642007;-64
2021/08/04 11:47:06;;;;;;;5.87;2.73;;;;;;;;;;726048;192;732334;-65
2021/08/04 11:49:32;;;;;;;3.10;2.43;;;;;;;;;;733189;193;620919;-65
2021/08/04 11:51:57;;;;;;;7.17;2.77;;;;;;;;;;729610;193;636735;-65
2021/08/04 11:54:35;;;;;;;4.57;2.50;;;;;;;;;;730107;193;620349;-67
2021/08/04 11:57:01;;;;;;;5.73;2.87;;;;;;;;;;730846;191;623124;-64
2021/08/04 11:59:26;;;;;;;3.10;2.20;;;;;;;;;;735210;192;617704;-65
2021/08/04 12:02:00;;;;;;;4.60;2.60;;;;;;;;;;732176;192;630654;-64
2021/08/04 12:04:26;;;;;;;3.47;2.50;;;;;;;;;;730205;190;628940;-65
2021/08/04 12:06:56;;;;;;;5.20;2.50;;;;;;;;;;732707;191;630169;-65
2021/08/04 12:09:22;;;;;;;4.17;1.97;;;;;;;;;;736457;192;616881;-65
2021/08/04 12:11:48;;;;;;;4.63;2.57;;;;;;;;;;731941;191;637381;-64
2021/08/04 12:14:15;;;;;;;3.70;2.43;;;;;;;;;;733336;190;629336;-64
2021/08/04 12:16:40;;;;;;;4.10;2.40;;;;;;;;;;735682;192;655857;-64
2021/08/04 12:19:06;;;;;;;3.97;2.23;;;;;;;;;;731753;192;616413;-65
2021/08/04 12:21:32;;;;;;;3.17;2.63;;;;;;;;;;730183;192;917947;-64
2021/08/04 12:23:58;;;;;;;3.13;2.07;;;;;;;;;;732515;192;631443;-66
2021/08/04 12:26:24;;;;;;;6.00;2.40;;;;;;;;;;740303;188;630406;-65
2021/08/04 12:28:50;;;;;;;3.40;2.70;;;;;;;;;;729564;191;646159;-65
2021/08/04 12:31:16;;;;;;;3.37;2.43;;;;;;;;;;730016;190;624999;-65
2021/08/04 12:33:56;;;;;;;5.40;2.53;;;;;;;;;;733720;192;616738;-65
2021/08/04 12:36:23;;;;;;;4.67;2.70;;;;;;;;;;726976;192;890026;-66
2021/08/04 12:38:38;;;;;;;3.53;2.00;;;;;;;;;;729341;191;649166;-65
2021/08/04 12:41:04;;;;;;;3.67;2.20;;;;;;;;;;733550;190;626610;-65
2021/08/04 12:43:29;;;;;;;3.15;2.42;;;;;;;;;;729038;190;626512;-67
2021/08/04 12:45:55;;;;;;;3.20;2.20;;;;;;;;;;728983;191;647434;-65
2021/08/04 12:48:21;;;;;;;3.20;2.03;;;;;;;;;;730474;192;627331;-65
2021/08/04 12:50:51;;;;;;;2.90;1.73;;;;;;;;;;732486;191;631736;-64
2021/08/04 12:53:20;;;;;;;5.57;1.80;;;;;;;;;;730377;192;642796;-65
2021/08/04 12:56:01;;;;;;;3.00;2.30;;;;;;;;;;730695;192;626654;-65
2021/08/04 12:58:27;;;;;;;2.60;1.80;;;;;;;;;;727957;193;931281;-65
2021/08/04 13:00:53;;;;;;;2.30;1.57;;;;;;;;;;733005;190;919058;-65
2021/08/04 13:03:24;;;;;;;3.20;1.93;;;;;;;;;;728867;193;725139;-65
2021/08/04 13:05:50;;;;;;;2.93;1.93;;;;;;;;;;729692;191;635274;-65
2021/08/04 13:08:22;;;;;;;2.80;1.60;;;;;;;;;;731704;192;624271;-65
2021/08/04 13:10:48;;;;;;;3.07;2.20;;;;;;;;;;733920;191;631618;-65
2021/08/04 13:13:14;;;;;;;3.93;1.80;;;;;;;;;;729441;191;919368;-64
2021/08/04 13:15:42;;;;;;;3.77;2.30;;;;;;;;;;729868;192;618964;-66
2021/08/04 13:18:08;;;;;;;3.13;1.80;;;;;;;;;;728117;190;919220;-65
2021/08/04 13:20:34;;;;;;;4.20;2.10;;;;;;;;;;732388;192;919840;-64
2021/08/04 13:22:59;;;;;;;4.07;2.53;;;;;;;;;;730740;191;875344;-65
2021/08/04 13:25:25;;;;;;;3.25;2.62;;;;;;;;;;730980;190;651239;-65
2021/08/04 13:27:51;;;;;;;3.47;2.03;;;;;;;;;;734969;193;635985;-65
2021/08/04 13:30:17;;;;;;;2.83;2.30;;;;;;;;;;731684;192;628486;-65
2021/08/04 13:32:43;;;;;;;3.60;2.20;;;;;;;;;;733841;190;626633;-63
2021/08/04 13:35:09;;;;;;;4.20;2.40;;;;;;;;;;735939;190;625220;-64
2021/08/04 13:37:35;;;;;;;3.20;2.20;;;;;;;;;;730088;192;635449;-65
2021/08/04 13:40:01;;;;;;;3.90;2.50;;;;;;;;;;729132;191;630818;-65
2021/08/04 13:42:27;;;;;;;3.70;2.50;;;;;;;;;;732868;191;646341;-65
2021/08/04 13:44:53;;;;;;;8.10;2.57;;;;;;;;;;737136;189;634184;-66
2021/08/04 13:47:18;;;;;;;3.37;2.40;;;;;;;;;;731052;192;626622;-65
2021/08/04 13:49:44;;;;;;;3.53;2.90;;;;;;;;;;729694;190;676893;-64
2021/08/04 13:52:10;;;;;;;4.57;2.43;;;;;;;;;;734950;191;631891;-65
2021/08/04 13:54:36;;;;;;;2.37;1.40;;;;;;;;;;730528;192;648508;-64
2021/08/04 13:57:02;;;;;;;3.40;2.30;;;;;;;;;;729569;190;776685;-64
2021/08/04 13:59:28;;;;;;;2.60;1.87;;;;;;;;;;732468;192;904579;-65
2021/08/04 14:01:54;;;;;;;3.20;2.03;;;;;;;;;;728808;190;919197;-64
2021/08/04 14:04:19;;;;;;;3.20;2.13;;;;;;;;;;731561;190;918274;-65
2021/08/04 14:06:45;;;;;;;3.60;2.30;;;;;;;;;;732910;192;627157;-67
2021/08/04 14:09:11;;;;;;;2.70;2.10;;;;;;;;;;729799;191;637044;-64
2021/08/04 14:11:37;;;;;;;6.67;2.40;;;;;;;;;;730359;192;619143;-64
2021/08/04 14:14:03;;;;;;;3.60;2.30;;;;;;;;;;730906;192;618690;-65
2021/08/04 14:16:29;;;;;;;4.83;2.67;;;;;;;;;;732631;190;819038;-65